Time;durP1;ratioP1;P1;durP2;ratioP2;P2;SDS_P1;SDS_P2;PMS_P1;PMS_P2;Temp;Humidity;BMP_temperature;BMP_pressure;BME280_temperature;BME280_humidity;BME280_pressure;Samples;Min_cycle;Max_cycle;Signal;HPM_P1;HPM_P2
2022/03/11 00:02:07;;;;;;;58.13;30.77;;;;;;;;;;6281043;28;20502;-76
2022/03/11 00:05:09;;;;;;;56.80;29.00;;;;;;;;;;6280463;28;20048;-75
2022/03/11 00:08:11;;;;;;;54.40;29.17;;;;;;;;;;6276966;28;20187;-75
2022/03/11 00:11:12;;;;;;;55.50;30.42;;;;;;;;;;6273860;28;20132;-76
2022/03/11 00:14:15;;;;;;;55.92;29.02;;;;;;;;;;6273569;28;20115;-77
2022/03/11 00:17:17;;;;;;;57.38;30.63;;;;;;;;;;6265320;28;20080;-75
2022/03/11 00:20:20;;;;;;;55.85;29.33;;;;;;;;;;6263108;28;20042;-75
2022/03/11 00:23:22;;;;;;;61.80;29.83;;;;;;;;;;6259064;28;20050;-76
2022/03/11 00:26:24;;;;;;;60.40;28.45;;;;;;;;;;6261080;28;20463;-76
2022/03/11 00:29:27;;;;;;;58.33;29.20;;;;;;;;;;6269798;28;20076;-75
2022/03/11 00:32:29;;;;;;;56.57;30.00;;;;;;;;;;6281731;28;20045;-76
2022/03/11 00:35:32;;;;;;;58.40;30.10;;;;;;;;;;6279079;28;20132;-76
2022/03/11 00:38:34;;;;;;;53.72;29.20;;;;;;;;;;6282486;28;20071;-74
2022/03/11 00:41:35;;;;;;;55.05;29.25;;;;;;;;;;6280043;28;20184;-76
2022/03/11 00:44:39;;;;;;;52.72;28.00;;;;;;;;;;6272978;28;20225;-76
2022/03/11 00:47:41;;;;;;;;;;;;;;;;;;6269137;28;20465;-74
2022/03/11 00:50:43;;;;;;;59.78;28.45;;;;;;;;;;6267886;28;19921;-74
2022/03/11 00:53:44;;;;;;;57.50;28.23;;;;;;;;;;6267386;28;20632;-74
2022/03/11 00:56:46;;;;;;;60.10;29.42;;;;;;;;;;6261377;28;20718;-74
2022/03/11 00:59:49;;;;;;;58.97;29.17;;;;;;;;;;6257843;28;20511;-74
2022/03/11 01:02:51;;;;;;;59.75;30.00;;;;;;;;;;6255789;28;20119;-73
2022/03/11 01:05:52;;;;;;;52.50;27.55;;;;;;;;;;6254910;28;20126;-74
2022/03/11 01:08:54;;;;;;;58.85;29.85;;;;;;;;;;6287586;28;20049;-73
2022/03/11 01:11:55;;;;;;;58.88;28.65;;;;;;;;;;6285645;28;20484;-76
2022/03/11 01:14:59;;;;;;;56.67;29.10;;;;;;;;;;6282090;28;20133;-79
2022/03/11 01:18:00;;;;;;;112.72;58.83;;;;;;;;;;6280802;28;20135;-75
2022/03/11 01:21:02;;;;;;;67.15;34.95;;;;;;;;;;6277044;28;20053;-77
2022/03/11 01:24:04;;;;;;;96.13;42.28;;;;;;;;;;6266757;28;20056;-80
2022/03/11 01:27:06;;;;;;;57.97;30.15;;;;;;;;;;6260398;28;20179;-79
2022/03/11 01:30:13;;;;;;;93.05;45.40;;;;;;;;;;6262488;28;20077;-80
2022/03/11 01:33:15;;;;;;;68.25;31.67;;;;;;;;;;6262224;28;20390;-78
2022/03/11 01:36:16;;;;;;;52.85;27.10;;;;;;;;;;6261537;28;20132;-74
2022/03/11 01:39:18;;;;;;;52.03;27.58;;;;;;;;;;6257603;28;20053;-74
2022/03/11 01:42:19;;;;;;;52.78;25.73;;;;;;;;;;6262785;28;20451;-74
2022/03/11 01:45:22;;;;;;;52.33;28.17;;;;;;;;;;6265961;28;20641;-73
2022/03/11 01:48:24;;;;;;;55.80;27.25;;;;;;;;;;6282279;28;20174;-74
2022/03/11 01:51:27;;;;;;;54.97;27.50;;;;;;;;;;6280519;28;20143;-74
2022/03/11 01:54:29;;;;;;;55.10;27.23;;;;;;;;;;6278009;28;20049;-73
2022/03/11 01:57:33;;;;;;;58.20;26.58;;;;;;;;;;6278056;28;20062;-74
2022/03/11 02:00:39;;;;;;;50.90;26.02;;;;;;;;;;6270329;28;20091;-74
2022/03/11 02:03:41;;;;;;;49.65;25.25;;;;;;;;;;6266424;28;20041;-75
2022/03/11 02:06:43;;;;;;;52.20;25.58;;;;;;;;;;6264662;28;20128;-73
2022/03/11 02:09:44;;;;;;;49.72;25.00;;;;;;;;;;6260175;28;20048;-72
2022/03/11 02:12:46;;;;;;;46.88;25.02;;;;;;;;;;6260952;28;20508;-73
2022/03/11 02:15:49;;;;;;;54.75;25.40;;;;;;;;;;6257970;28;20171;-73
2022/03/11 02:18:51;;;;;;;48.20;25.17;;;;;;;;;;6273385;28;20390;-74
2022/03/11 02:21:54;;;;;;;45.60;23.48;;;;;;;;;;6272899;28;20193;-73
2022/03/11 02:24:56;;;;;;;50.45;25.88;;;;;;;;;;6264648;28;20049;-73
2022/03/11 02:27:58;;;;;;;50.53;24.02;;;;;;;;;;6279410;28;20190;-75
2022/03/11 02:30:59;;;;;;;47.78;23.88;;;;;;;;;;6279017;28;20072;-73
2022/03/11 02:34:03;;;;;;;46.70;25.85;;;;;;;;;;6270489;28;20056;-74
2022/03/11 02:37:05;;;;;;;47.78;23.85;;;;;;;;;;6268727;28;20102;-74
2022/03/11 02:40:10;;;;;;;48.72;23.80;;;;;;;;;;6268179;28;20129;-74
2022/03/11 02:43:11;;;;;;;45.83;25.00;;;;;;;;;;6265529;28;20045;-74
2022/03/11 02:46:14;;;;;;;46.55;23.27;;;;;;;;;;6262030;28;20101;-72
2022/03/11 02:49:15;;;;;;;44.03;23.70;;;;;;;;;;6255780;28;20060;-73
2022/03/11 02:52:17;;;;;;;48.17;24.15;;;;;;;;;;6265814;28;20195;-73
2022/03/11 02:55:19;;;;;;;47.35;24.27;;;;;;;;;;6270780;28;20214;-73
2022/03/11 02:58:21;;;;;;;47.70;24.23;;;;;;;;;;6269164;28;20179;-73
2022/03/11 03:01:23;;;;;;;50.58;25.67;;;;;;;;;;6262790;28;20130;-73
2022/03/11 03:04:24;;;;;;;47.83;24.35;;;;;;;;;;6259920;28;20123;-74
2022/03/11 03:07:26;;;;;;;43.67;22.70;;;;;;;;;;6262915;28;20114;-72
2022/03/11 03:10:29;;;;;;;43.92;23.15;;;;;;;;;;6275879;28;20135;-73
2022/03/11 03:13:30;;;;;;;51.70;24.40;;;;;;;;;;6269891;28;20044;-73
2022/03/11 03:16:32;;;;;;;46.63;23.27;;;;;;;;;;6269420;28;20135;-73
2022/03/11 03:19:35;;;;;;;46.00;23.08;;;;;;;;;;6264642;28;20095;-74
2022/03/11 03:22:37;;;;;;;48.28;22.77;;;;;;;;;;6259810;28;20421;-72
2022/03/11 03:25:41;;;;;;;50.78;25.30;;;;;;;;;;6268275;28;20098;-73
2022/03/11 03:28:43;;;;;;;43.08;23.13;;;;;;;;;;6273371;28;20060;-74
2022/03/11 03:31:44;;;;;;;45.47;23.60;;;;;;;;;;6270926;28;20064;-73
2022/03/11 03:34:46;;;;;;;47.72;24.20;;;;;;;;;;6263523;28;20120;-74
2022/03/11 03:37:47;;;;;;;47.75;22.70;;;;;;;;;;6267197;28;20595;-72
2022/03/11 03:40:50;;;;;;;42.85;22.48;;;;;;;;;;6264589;28;20493;-73
2022/03/11 03:43:52;;;;;;;44.97;23.30;;;;;;;;;;6261139;28;20556;-73
2022/03/11 03:46:54;;;;;;;44.38;22.63;;;;;;;;;;6266064;28;20098;-74
2022/03/11 03:49:55;;;;;;;47.78;21.40;;;;;;;;;;6276127;28;20174;-73
2022/03/11 03:52:57;;;;;;;44.47;23.27;;;;;;;;;;6276841;28;20128;-72
2022/03/11 03:56:00;;;;;;;45.00;22.83;;;;;;;;;;6272499;28;20053;-73
2022/03/11 03:59:04;;;;;;;43.03;21.95;;;;;;;;;;6267636;28;20187;-73
2022/03/11 04:02:06;;;;;;;48.70;24.08;;;;;;;;;;6278237;28;20044;-72
2022/03/11 04:05:09;;;;;;;45.10;22.85;;;;;;;;;;6283327;28;20053;-74
2022/03/11 04:08:11;;;;;;;45.20;23.73;;;;;;;;;;6280331;28;20137;-72
2022/03/11 04:11:14;;;;;;;44.75;21.55;;;;;;;;;;6275400;28;20515;-73
2022/03/11 04:14:16;;;;;;;43.30;21.92;;;;;;;;;;6270399;28;20601;-73
2022/03/11 04:17:17;;;;;;;43.72;22.30;;;;;;;;;;6268132;28;20144;-73
2022/03/11 04:20:19;;;;;;;46.22;22.30;;;;;;;;;;6267227;28;20135;-73
2022/03/11 04:23:20;;;;;;;39.50;21.83;;;;;;;;;;6265201;28;20520;-73
2022/03/11 04:26:23;;;;;;;41.60;21.80;;;;;;;;;;6263430;28;20080;-74
2022/03/11 04:29:26;;;;;;;38.17;20.58;;;;;;;;;;6274991;28;20527;-74
2022/03/11 04:32:27;;;;;;;47.90;21.88;;;;;;;;;;6267948;28;20438;-74
2022/03/11 04:35:29;;;;;;;37.05;20.13;;;;;;;;;;6267965;28;20057;-74
2022/03/11 04:38:31;;;;;;;39.28;21.17;;;;;;;;;;6284102;28;20124;-74
2022/03/11 04:41:34;;;;;;;42.45;19.77;;;;;;;;;;6277438;28;20057;-74
2022/03/11 04:44:36;;;;;;;39.97;20.15;;;;;;;;;;6273298;28;20045;-73
2022/03/11 04:47:37;;;;;;;38.95;20.00;;;;;;;;;;6271590;28;20052;-73
2022/03/11 04:50:39;;;;;;;36.20;18.83;;;;;;;;;;6267286;28;20570;-73
2022/03/11 04:53:41;;;;;;;39.55;19.40;;;;;;;;;;6265790;28;20131;-74
2022/03/11 04:56:44;;;;;;;42.50;17.80;;;;;;;;;;6264688;28;20069;-73
2022/03/11 04:59:45;;;;;;;34.78;18.02;;;;;;;;;;6257273;28;20135;-76
2022/03/11 05:02:47;;;;;;;34.47;17.50;;;;;;;;;;6253573;28;20133;-73
2022/03/11 05:05:49;;;;;;;30.98;16.88;;;;;;;;;;6249818;28;20132;-73
2022/03/11 05:08:50;;;;;;;34.38;18.25;;;;;;;;;;6268555;28;20200;-74
2022/03/11 05:11:53;;;;;;;30.98;17.30;;;;;;;;;;6282381;28;20488;-75
2022/03/11 05:14:55;;;;;;;30.08;16.10;;;;;;;;;;6283871;28;20468;-73
2022/03/11 05:17:56;;;;;;;29.60;15.52;;;;;;;;;;6279719;28;20213;-73
2022/03/11 05:20:58;;;;;;;27.33;16.00;;;;;;;;;;6272586;28;20059;-74
2022/03/11 05:24:00;;;;;;;33.90;16.60;;;;;;;;;;6273382;28;20041;-73
2022/03/11 05:27:03;;;;;;;29.60;15.10;;;;;;;;;;6270296;28;20072;-74
2022/03/11 05:30:06;;;;;;;31.00;15.77;;;;;;;;;;6263947;28;20072;-73
2022/03/11 05:33:08;;;;;;;29.77;16.30;;;;;;;;;;6261181;28;20088;-75
2022/03/11 05:36:09;;;;;;;30.20;15.90;;;;;;;;;;6260600;28;20081;-72
2022/03/11 05:39:11;;;;;;;29.67;17.40;;;;;;;;;;6257932;28;20132;-74
2022/03/11 05:42:14;;;;;;;26.13;15.25;;;;;;;;;;6250199;28;20130;-74
2022/03/11 05:45:15;;;;;;;28.83;16.40;;;;;;;;;;6254375;28;20098;-72
2022/03/11 05:48:17;;;;;;;28.65;15.32;;;;;;;;;;6278297;28;20056;-73
2022/03/11 05:51:19;;;;;;;29.33;15.65;;;;;;;;;;6281787;28;20096;-74
2022/03/11 05:54:20;;;;;;;26.17;15.02;;;;;;;;;;6274885;28;20500;-74
2022/03/11 05:57:23;;;;;;;32.65;15.52;;;;;;;;;;6273835;28;20127;-73
2022/03/11 06:00:25;;;;;;;27.75;15.80;;;;;;;;;;6269591;28;20069;-73
2022/03/11 06:03:26;;;;;;;34.28;16.23;;;;;;;;;;6268129;28;20511;-73
2022/03/11 06:06:28;;;;;;;25.42;15.35;;;;;;;;;;6266097;28;20077;-73
2022/03/11 06:09:30;;;;;;;29.98;15.93;;;;;;;;;;6260468;28;20055;-73
2022/03/11 06:12:33;;;;;;;33.17;16.65;;;;;;;;;;6262220;28;20081;-73
2022/03/11 06:15:34;;;;;;;32.55;16.60;;;;;;;;;;6255329;28;20492;-73
2022/03/11 06:18:36;;;;;;;28.90;16.35;;;;;;;;;;6250516;28;20077;-72
2022/03/11 06:21:38;;;;;;;31.33;15.95;;;;;;;;;;6262976;28;20184;-73
2022/03/11 06:24:39;;;;;;;29.60;16.42;;;;;;;;;;6264390;28;20048;-71
2022/03/11 06:27:42;;;;;;;30.05;16.77;;;;;;;;;;6270425;28;20080;-71
2022/03/11 06:30:46;;;;;;;29.95;16.17;;;;;;;;;;6277040;28;20170;-73
2022/03/11 06:33:48;;;;;;;29.52;16.65;;;;;;;;;;6278298;28;20393;-69
2022/03/11 06:36:50;;;;;;;29.58;16.20;;;;;;;;;;6271502;28;20041;-70
2022/03/11 06:39:51;;;;;;;27.70;15.98;;;;;;;;;;6270504;28;20077;-69
2022/03/11 06:42:54;;;;;;;25.88;15.95;;;;;;;;;;6262682;28;20057;-71
2022/03/11 06:45:56;;;;;;;28.45;16.00;;;;;;;;;;6261681;28;20564;-70
2022/03/11 06:48:57;;;;;;;32.30;16.48;;;;;;;;;;6256048;28;20081;-70
2022/03/11 06:51:59;;;;;;;29.65;16.48;;;;;;;;;;6255621;28;20624;-70
2022/03/11 06:55:01;;;;;;;28.10;14.98;;;;;;;;;;6261053;28;20041;-71
2022/03/11 06:58:04;;;;;;;29.10;15.13;;;;;;;;;;6272891;28;20044;-71
2022/03/11 07:01:05;;;;;;;22.77;15.05;;;;;;;;;;6263257;28;20094;-71
2022/03/11 07:04:07;;;;;;;29.00;14.57;;;;;;;;;;6265293;28;20136;-72
2022/03/11 07:07:09;;;;;;;22.45;14.82;;;;;;;;;;6266162;28;20124;-70
2022/03/11 07:10:10;;;;;;;27.58;14.65;;;;;;;;;;6280314;28;20497;-70
2022/03/11 07:13:13;;;;;;;23.48;13.50;;;;;;;;;;6277590;28;20067;-70
2022/03/11 07:16:15;;;;;;;22.20;13.55;;;;;;;;;;6276635;28;20525;-70
2022/03/11 07:19:17;;;;;;;25.60;14.40;;;;;;;;;;6269937;28;20127;-70
2022/03/11 07:22:18;;;;;;;27.65;13.90;;;;;;;;;;6267990;28;20057;-70
2022/03/11 07:25:20;;;;;;;28.08;15.05;;;;;;;;;;6261966;28;20127;-70
2022/03/11 07:28:23;;;;;;;30.02;14.25;;;;;;;;;;6262407;28;20216;-70
2022/03/11 07:31:24;;;;;;;22.30;13.93;;;;;;;;;;6275518;28;20054;-71
2022/03/11 07:34:26;;;;;;;28.17;15.20;;;;;;;;;;6278054;28;20126;-70
2022/03/11 07:37:28;;;;;;;26.92;14.13;;;;;;;;;;6272157;28;20295;-71
2022/03/11 07:40:29;;;;;;;30.30;13.80;;;;;;;;;;6266561;28;20077;-69
2022/03/11 07:43:32;;;;;;;22.50;13.52;;;;;;;;;;6263448;28;20148;-70
2022/03/11 07:46:35;;;;;;;21.92;12.98;;;;;;;;;;6265728;28;20067;-70
2022/03/11 07:49:37;;;;;;;22.33;13.55;;;;;;;;;;6279999;28;20052;-70
2022/03/11 07:52:39;;;;;;;23.17;13.77;;;;;;;;;;6277973;28;20069;-70
2022/03/11 07:55:41;;;;;;;24.65;13.82;;;;;;;;;;6273814;28;20045;-72
2022/03/11 07:58:44;;;;;;;22.08;12.70;;;;;;;;;;6260621;28;20149;-69
2022/03/11 08:01:46;;;;;;;24.70;13.27;;;;;;;;;;6268870;28;20061;-71
2022/03/11 08:04:47;;;;;;;22.50;13.18;;;;;;;;;;6267129;28;20059;-70
2022/03/11 08:07:50;;;;;;;22.00;13.73;;;;;;;;;;6278605;28;20253;-68
2022/03/11 08:10:52;;;;;;;23.52;12.73;;;;;;;;;;6274781;28;20052;-69
2022/03/11 08:13:55;;;;;;;19.83;12.40;;;;;;;;;;6275885;28;20059;-70
2022/03/11 08:16:58;;;;;;;22.70;12.38;;;;;;;;;;6268074;28;20501;-71
2022/03/11 08:20:00;;;;;;;18.88;12.70;;;;;;;;;;6261386;28;20056;-74
2022/03/11 08:23:02;;;;;;;19.15;11.43;;;;;;;;;;6261239;28;20278;-70
2022/03/11 08:26:03;;;;;;;20.85;12.85;;;;;;;;;;6260813;28;20134;-68
2022/03/11 08:29:06;;;;;;;27.08;11.68;;;;;;;;;;6276805;28;20131;-69
2022/03/11 08:32:09;;;;;;;21.63;11.30;;;;;;;;;;6268277;28;20519;-68
2022/03/11 08:35:10;;;;;;;18.58;11.82;;;;;;;;;;6269110;28;20132;-68
2022/03/11 08:38:12;;;;;;;18.90;11.20;;;;;;;;;;6268518;28;20135;-68
2022/03/11 08:41:14;;;;;;;18.05;10.60;;;;;;;;;;6269539;28;20052;-69
2022/03/11 08:44:17;;;;;;;15.43;9.90;;;;;;;;;;6274226;28;20072;-68
2022/03/11 08:47:18;;;;;;;20.92;10.63;;;;;;;;;;6276789;28;20552;-69
2022/03/11 08:50:21;;;;;;;17.70;9.88;;;;;;;;;;6271798;28;20148;-69
2022/03/11 08:53:22;;;;;;;22.58;9.77;;;;;;;;;;6268289;28;20045;-72
2022/03/11 08:56:24;;;;;;;;;;;;;;;;;;6267580;28;20179;-72
2022/03/11 08:59:27;;;;;;;;;;;;;;;;;;6266637;28;19932;-73
2022/03/11 09:02:29;;;;;;;;;;;;;;;;;;6262797;28;20785;-77
2022/03/11 09:05:30;;;;;;;;;;;;;;;;;;6258308;28;20368;-75
2022/03/11 09:08:31;;;;;;;;;;;;;;;;;;6270747;28;20029;-73
2022/03/11 09:11:33;;;;;;;;;;;;;;;;;;6272181;28;19963;-74
2022/03/11 09:14:35;;;;;;;;;;;;;;;;;;6274175;28;20613;-74
2022/03/11 09:17:37;;;;;;;;;;;;;;;;;;6281233;28;19920;-72
2022/03/11 09:20:40;;;;;;;;;;;;;;;;;;6281282;28;20497;-74
2022/03/11 09:23:42;;;;;;;;;;;;;;;;;;6271420;28;19925;-75
2022/03/11 09:26:45;;;;;;;;;;;;;;;;;;6272866;28;20047;-74
2022/03/11 09:29:48;;;;;;;;;;;;;;;;;;6272182;28;20400;-72
2022/03/11 09:32:49;;;;;;;;;;;;;;;;;;6267069;28;19972;-71
2022/03/11 09:35:50;;;;;;;;;;;;;;;;;;6261531;28;20079;-69
2022/03/11 09:38:52;;;;;;;;;;;;;;;;;;6259771;28;20078;-70
2022/03/11 09:41:53;;;;;;;;;;;;;;;;;;6257465;28;20053;-71
2022/03/11 09:44:57;;;;;;;;;;;;;;;;;;6253039;28;20006;-72
2022/03/11 09:47:58;;;;;;;;;;;;;;;;;;6263604;28;19924;-71
2022/03/11 09:50:59;;;;;;;;;;;;;;;;;;6278148;28;20026;-69
2022/03/11 09:54:01;;;;;;;;;;;;;;;;;;6285930;28;20015;-70
2022/03/11 09:57:02;;;;;;;;;;;;;;;;;;6280983;28;19959;-69
2022/03/11 10:00:06;;;;;;;;;;;;;;;;;;6268630;28;20470;-69
2022/03/11 10:03:07;;;;;;;;;;;;;;;;;;6268326;28;20019;-69
2022/03/11 10:06:09;;;;;;;;;;;;;;;;;;6272534;28;19931;-69
2022/03/11 10:09:30;;;;;;;;;;;;;;;;;;6269215;28;19967;-69
2022/03/11 10:12:32;;;;;;;;;;;;;;;;;;6263560;28;20011;-69
2022/03/11 10:15:34;;;;;;;;;;;;;;;;;;6260586;28;20002;-70
2022/03/11 10:18:36;;;;;;;;;;;;;;;;;;6256265;28;19925;-71
2022/03/11 10:21:38;;;;;;;;;;;;;;;;;;6257175;28;19943;-72
2022/03/11 10:24:41;;;;;;;;;;;;;;;;;;6257009;28;19925;-71
2022/03/11 10:27:58;;;;;;;;;;;;;;;;;;6273199;28;20103;-70
2022/03/11 10:31:08;;;;;;;;;;;;;;;;;;6275235;28;20008;-70
2022/03/11 10:34:14;;;;;;;;;;;;;;;;;;6281454;28;19998;-71
2022/03/11 10:37:16;;;;;;;;;;;;;;;;;;6278661;28;20074;-71
2022/03/11 10:40:18;;;;;;;;;;;;;;;;;;6271226;28;19921;-70
2022/03/11 10:43:20;;;;;;;;;;;;;;;;;;6271870;28;20054;-70
2022/03/11 10:46:23;;;;;;;;;;;;;;;;;;6263137;28;19925;-71
2022/03/11 10:49:25;;;;;;;;;;;;;;;;;;6261648;28;20435;-71
2022/03/11 10:52:30;;;;;;;;;;;;;;;;;;6264790;28;20024;-70
2022/03/11 10:55:33;;;;;;;;;;;;;;;;;;6259016;28;20012;-71
2022/03/11 10:58:36;;;;;;;;;;;;;;;;;;6255054;28;19925;-71
2022/03/11 11:01:39;;;;;;;;;;;;;;;;;;6266916;28;20296;-71
2022/03/11 11:04:42;;;;;;;;;;;;;;;;;;6270796;28;20003;-71
2022/03/11 11:07:43;;;;;;;;;;;;;;;;;;6277773;28;19921;-72
2022/03/11 11:10:45;;;;;;;;;;;;;;;;;;6267458;28;20020;-71
2022/03/11 11:13:47;;;;;;;;;;;;;;;;;;6275968;28;20007;-69
2022/03/11 11:16:50;;;;;;;;;;;;;;;;;;6270827;28;20070;-69
2022/03/11 11:19:52;;;;;;;;;;;;;;;;;;6268798;28;19983;-69
2022/03/11 11:22:54;;;;;;;;;;;;;;;;;;6265146;28;20313;-69
2022/03/11 11:25:56;;;;;;;;;;;;;;;;;;6262278;28;20011;-69
2022/03/11 11:28:58;;;;;;;;;;;;;;;;;;6258224;28;19921;-70
2022/03/11 11:32:01;;;;;;;;;;;;;;;;;;6255512;28;20059;-70
2022/03/11 11:35:17;;;;;;;;;;;;;;;;;;6263912;28;20074;-69
2022/03/11 11:38:34;;;;;;;;;;;;;;;;;;6266847;28;19929;-70
2022/03/11 11:41:36;;;;;;;;;;;;;;;;;;6269269;28;20145;-69
2022/03/11 11:44:38;;;;;;;;;;;;;;;;;;6265122;28;20063;-70
2022/03/11 11:47:40;;;;;;;;;;;;;;;;;;6263514;28;19920;-69
2022/03/11 11:50:43;;;;;;;;;;;;;;;;;;6272408;28;20382;-69
2022/03/11 11:53:50;;;;;;;;;;;;;;;;;;6272800;28;19927;-68
2022/03/11 11:57:00;;;;;;;;;;;;;;;;;;6265136;28;20269;-70
2022/03/11 12:00:01;;;;;;;;;;;;;;;;;;6270208;28;20407;-69
2022/03/11 12:03:04;;;;;;;;;;;;;;;;;;6268198;28;20392;-69
2022/03/11 12:06:05;;;;;;;;;;;;;;;;;;6265003;28;20049;-69
2022/03/11 12:09:07;;;;;;;;;;;;;;;;;;6260461;28;20246;-70
2022/03/11 12:12:09;;;;;;;;;;;;;;;;;;6276684;28;20000;-69
2022/03/11 12:15:16;;;;;;;;;;;;;;;;;;6275249;28;20011;-68
2022/03/11 12:18:40;;;;;;;;;;;;;;;;;;6269222;28;19991;-68
2022/03/11 12:21:42;;;;;;;;;;;;;;;;;;6263859;28;20361;-68
2022/03/11 12:24:43;;;;;;;;;;;;;;;;;;6264663;28;19925;-69
2022/03/11 12:28:12;;;;;;;;;;;;;;;;;;6269640;28;20004;-69
2022/03/11 12:31:14;;;;;;;;;;;;;;;;;;6271631;28;19920;-69
2022/03/11 12:34:16;;;;;;;;;;;;;;;;;;6272531;28;19931;-69
2022/03/11 12:37:18;;;;;;;;;;;;;;;;;;6269612;28;19924;-69
2022/03/11 12:40:20;;;;;;;;;;;;;;;;;;6270630;28;19921;-69
2022/03/11 12:43:21;;;;;;;;;;;;;;;;;;6267235;28;19974;-73
2022/03/11 12:46:23;;;;;;;;;;;;;;;;;;6282185;28;19924;-69
2022/03/11 12:49:26;;;;;;;;;;;;;;;;;;6272059;28;19983;-68
2022/03/11 12:52:28;;;;;;;;;;;;;;;;;;6278421;28;19944;-72
2022/03/11 12:55:31;;;;;;;;;;;;;;;;;;6270579;28;19962;-70
2022/03/11 12:58:33;;;;;;;;;;;;;;;;;;6269248;28;19928;-70
2022/03/11 13:01:34;;;;;;;;;;;;;;;;;;6264471;28;19925;-69
2022/03/11 13:04:42;;;;;;;;;;;;;;;;;;6267056;28;19997;-70
2022/03/11 13:07:43;;;;;;;;;;;;;;;;;;6270640;28;19928;-70
2022/03/11 13:10:45;;;;;;;;;;;;;;;;;;6270549;28;19920;-70
2022/03/11 13:13:46;;;;;;;;;;;;;;;;;;6270604;28;20015;-69
2022/03/11 13:16:52;;;;;;;;;;;;;;;;;;6269707;28;20033;-70
2022/03/11 13:19:55;;;;;;;;;;;;;;;;;;6275848;28;19920;-72
2022/03/11 13:22:56;;;;;;;;;;;;;;;;;;6271609;28;19931;-71
2022/03/11 13:25:58;;;;;;;;;;;;;;;;;;6275194;28;19924;-70
2022/03/11 13:29:00;;;;;;;;;;;;;;;;;;6271406;28;19966;-71
2022/03/11 13:32:02;;;;;;;;;;;;;;;;;;6264167;28;19925;-70
2022/03/11 13:35:05;;;;;;;;;;;;;;;;;;6264556;28;20195;-71
2022/03/11 13:38:06;;;;;;;;;;;;;;;;;;6263931;28;19951;-73
2022/03/11 13:41:08;;;;;;;;;;;;;;;;;;6257145;28;19928;-72
2022/03/11 13:44:11;;;;;;;;;;;;;;;;;;6253091;28;19936;-70
2022/03/11 13:47:15;;;;;;;;;;;;;;;;;;6262772;28;19921;-71
2022/03/11 13:50:19;;;;;;;;;;;;;;;;;;6271516;28;19965;-70
2022/03/11 13:53:26;;;;;;;;;;;;;;;;;;6263116;28;19951;-70
2022/03/11 13:56:27;;;;;;;;;;;;;;;;;;6283072;28;20422;-70
2022/03/11 13:59:29;;;;;;;;;;;;;;;;;;6280612;28;20008;-70
2022/03/11 14:02:31;;;;;;;;;;;;;;;;;;6274776;28;19920;-70
2022/03/11 14:05:39;;;;;;;;;;;;;;;;;;6266640;28;20010;-71
2022/03/11 14:08:41;;;;;;;;;;;;;;;;;;6271224;28;20007;-70
2022/03/11 14:11:42;;;;;;;;;;;;;;;;;;6266215;28;20019;-70
2022/03/11 14:14:44;;;;;;;;;;;;;;;;;;6264621;28;20015;-70
2022/03/11 14:17:46;;;;;;;;;;;;;;;;;;6260618;28;20310;-70
2022/03/11 14:20:49;;;;;;;;;;;;;;;;;;6255665;28;20568;-70
2022/03/11 14:23:50;;;;;;;;;;;;;;;;;;6255062;28;20000;-70
2022/03/11 14:26:51;;;;;;;;;;;;;;;;;;6255860;28;20131;-70
2022/03/11 14:29:53;;;;;;;;;;;;;;;;;;6277895;28;20053;-70
2022/03/11 14:32:54;;;;;;;;;;;;;;;;;;6285029;28;19935;-70
2022/03/11 14:35:57;;;;;;;;;;;;;;;;;;6277607;28;20532;-72
2022/03/11 14:38:59;;;;;;;;;;;;;;;;;;6271268;28;20080;-71
2022/03/11 14:42:01;;;;;;;;;;;;;;;;;;6271297;28;19925;-71
2022/03/11 14:45:03;;;;;;;;;;;;;;;;;;6262606;28;19970;-70
2022/03/11 14:48:04;;;;;;;;;;;;;;;;;;6263178;28;19924;-70
2022/03/11 14:51:08;;;;;;;;;;;;;;;;;;6259868;28;20027;-71
2022/03/11 14:54:09;;;;;;;;;;;;;;;;;;6260960;28;20443;-66
2022/03/11 14:57:11;;;;;;;50.88;13.55;;;;;;;;;;6254798;28;20318;-71
2022/03/11 15:00:15;;;;;;;17.90;11.82;;;;;;;;;;6254615;28;20171;-69
2022/03/11 15:03:17;;;;;;;24.17;13.13;;;;;;;;;;6253664;28;20144;-70
2022/03/11 15:06:20;;;;;;;21.30;13.60;;;;;;;;;;6265898;28;20544;-69
2022/03/11 15:09:22;;;;;;;24.67;12.73;;;;;;;;;;6280145;28;20121;-70
2022/03/11 15:12:23;;;;;;;22.27;14.38;;;;;;;;;;6277965;28;20455;-71
2022/03/11 15:15:26;;;;;;;18.77;12.07;;;;;;;;;;6273614;28;20095;-72
2022/03/11 15:18:28;;;;;;;18.63;12.00;;;;;;;;;;6269491;28;20488;-72
2022/03/11 15:21:31;;;;;;;21.65;12.88;;;;;;;;;;6267230;28;20060;-72
2022/03/11 15:24:33;;;;;;;16.00;12.93;;;;;;;;;;6263951;28;20269;-72
2022/03/11 15:27:34;;;;;;;19.20;13.20;;;;;;;;;;6260786;28;20216;-73
2022/03/11 15:30:36;;;;;;;18.40;13.15;;;;;;;;;;6258490;28;20618;-73
2022/03/11 15:33:38;;;;;;;18.58;12.77;;;;;;;;;;6255733;28;20140;-74
2022/03/11 15:36:40;;;;;;;31.42;13.88;;;;;;;;;;6256995;28;20143;-75
2022/03/11 15:39:42;;;;;;;19.70;11.97;;;;;;;;;;6263942;28;20126;-75
2022/03/11 15:42:45;;;;;;;18.42;12.18;;;;;;;;;;6267673;28;20534;-75
2022/03/11 15:45:47;;;;;;;19.55;11.82;;;;;;;;;;6267074;28;20049;-76
2022/03/11 15:48:49;;;;;;;20.20;11.63;;;;;;;;;;6275630;28;20186;-76
2022/03/11 15:51:52;;;;;;;17.63;11.52;;;;;;;;;;6270529;28;20664;-75
2022/03/11 15:54:55;;;;;;;21.00;11.87;;;;;;;;;;6277667;28;20041;-75
2022/03/11 15:57:58;;;;;;;17.55;11.57;;;;;;;;;;6273125;28;20049;-74
2022/03/11 16:01:00;;;;;;;17.08;11.40;;;;;;;;;;6268521;28;20440;-76
2022/03/11 16:04:02;;;;;;;19.00;11.45;;;;;;;;;;6264887;28;20455;-75
2022/03/11 16:07:05;;;;;;;17.10;12.07;;;;;;;;;;6262229;28;20118;-74
2022/03/11 16:10:07;;;;;;;17.05;12.02;;;;;;;;;;6262923;28;20076;-75
2022/03/11 16:13:09;;;;;;;16.73;11.25;;;;;;;;;;6258087;28;20129;-75
2022/03/11 16:16:12;;;;;;;13.63;10.05;;;;;;;;;;6274510;28;20424;-75
2022/03/11 16:19:14;;;;;;;14.80;10.90;;;;;;;;;;6271425;28;20558;-75
2022/03/11 16:22:17;;;;;;;17.75;12.23;;;;;;;;;;6264741;28;20185;-76
2022/03/11 16:25:19;;;;;;;17.58;11.73;;;;;;;;;;6265539;28;20045;-76
2022/03/11 16:28:20;;;;;;;18.05;11.80;;;;;;;;;;6275198;28;20127;-76
2022/03/11 16:31:22;;;;;;;16.02;11.13;;;;;;;;;;6275302;28;20136;-76
2022/03/11 16:34:27;;;;;;;18.20;11.68;;;;;;;;;;6271775;28;20484;-75
2022/03/11 16:37:29;;;;;;;17.48;11.57;;;;;;;;;;6269916;28;20051;-71
2022/03/11 16:40:32;;;;;;;24.10;11.57;;;;;;;;;;6266327;28;20100;-74
2022/03/11 16:43:33;;;;;;;16.88;11.27;;;;;;;;;;6263278;28;20041;-72
2022/03/11 16:46:35;;;;;;;16.30;11.15;;;;;;;;;;6260186;28;20096;-71
2022/03/11 16:49:38;;;;;;;15.40;10.80;;;;;;;;;;6270155;28;20128;-72
2022/03/11 16:52:41;;;;;;;15.40;11.00;;;;;;;;;;6274270;28;20103;-72
2022/03/11 16:55:45;;;;;;;17.75;11.82;;;;;;;;;;6265939;28;20074;-70
2022/03/11 16:58:46;;;;;;;53.75;31.83;;;;;;;;;;6267129;28;20830;-70
2022/03/11 17:01:48;;;;;;;72.90;37.33;;;;;;;;;;6261933;28;20152;-71
2022/03/11 17:04:50;;;;;;;18.25;13.00;;;;;;;;;;6261241;28;20053;-71
2022/03/11 17:07:54;;;;;;;23.13;16.23;;;;;;;;;;6266903;28;20102;-72
2022/03/11 17:10:55;;;;;;;32.65;18.88;;;;;;;;;;6269098;28;20075;-70
2022/03/11 17:13:57;;;;;;;21.75;12.55;;;;;;;;;;6269632;28;20261;-70
2022/03/11 17:16:59;;;;;;;92.18;49.08;;;;;;;;;;6263595;28;20053;-70
2022/03/11 17:20:00;;;;;;;60.10;31.38;;;;;;;;;;6266156;28;20127;-71
2022/03/11 17:23:04;;;;;;;20.27;11.93;;;;;;;;;;6267415;28;20122;-73
2022/03/11 17:26:06;;;;;;;20.52;11.70;;;;;;;;;;6273875;28;20056;-71
2022/03/11 17:29:07;;;;;;;18.20;11.48;;;;;;;;;;6276065;28;20140;-71
2022/03/11 17:32:09;;;;;;;15.25;11.23;;;;;;;;;;6269669;28;20187;-71
2022/03/11 17:35:11;;;;;;;14.82;10.15;;;;;;;;;;6268750;28;20103;-74
2022/03/11 17:38:16;;;;;;;19.40;10.75;;;;;;;;;;6268399;28;20144;-74
2022/03/11 17:41:18;;;;;;;19.80;11.15;;;;;;;;;;6258810;28;20532;-74
2022/03/11 17:44:19;;;;;;;19.60;10.45;;;;;;;;;;6256762;28;20057;-74
2022/03/11 17:47:21;;;;;;;15.50;10.82;;;;;;;;;;6261567;28;20045;-75
2022/03/11 17:50:22;;;;;;;19.60;11.95;;;;;;;;;;6266261;28;20042;-75
2022/03/11 17:53:27;;;;;;;18.55;10.70;;;;;;;;;;6269242;28;20520;-72
2022/03/11 17:56:28;;;;;;;19.50;11.00;;;;;;;;;;6260956;28;20521;-73
2022/03/11 17:59:30;;;;;;;16.38;10.32;;;;;;;;;;6274196;28;20082;-74
2022/03/11 18:02:32;;;;;;;22.25;11.07;;;;;;;;;;6278515;28;20094;-74
2022/03/11 18:05:34;;;;;;;16.83;10.73;;;;;;;;;;6265318;28;20044;-74
2022/03/11 18:08:37;;;;;;;16.55;10.98;;;;;;;;;;6268043;28;20385;-74
2022/03/11 18:11:39;;;;;;;20.00;11.20;;;;;;;;;;6267611;28;20051;-74
2022/03/11 18:14:40;;;;;;;19.05;10.88;;;;;;;;;;6265795;28;20041;-74
2022/03/11 18:17:42;;;;;;;15.77;10.55;;;;;;;;;;6260539;28;20041;-74
2022/03/11 18:20:45;;;;;;;23.98;11.05;;;;;;;;;;6262547;28;20519;-74
2022/03/11 18:23:48;;;;;;;17.48;10.95;;;;;;;;;;6259745;28;20044;-73
2022/03/11 18:26:50;;;;;;;19.08;10.13;;;;;;;;;;6253781;28;20103;-72
2022/03/11 18:29:51;;;;;;;17.83;10.55;;;;;;;;;;6269534;28;20524;-77
2022/03/11 18:32:53;;;;;;;17.63;10.57;;;;;;;;;;6271669;28;20170;-73
2022/03/11 18:35:55;;;;;;;16.83;10.57;;;;;;;;;;6278849;28;20325;-74